Time;durP1;ratioP1;P1;durP2;ratioP2;P2;SDS_P1;SDS_P2;PMS_P1;PMS_P2;Temp;Humidity;BMP_temperature;BMP_pressure;BME280_temperature;BME280_humidity;BME280_pressure;Samples;Min_cycle;Max_cycle;Signal;HPM_P1;HPM_P2
2022/10/18 00:00:05;;;;;;;16.85;13.27;;;14.90;99.90;;;;;;5049345;28;20041;-73
2022/10/18 00:02:36;;;;;;;24.42;13.60;;;14.80;99.90;;;;;;5045928;28;20109;-75
2022/10/18 00:05:04;;;;;;;22.52;13.50;;;14.80;99.90;;;;;;5052572;28;20045;-75
2022/10/18 00:07:31;;;;;;;19.90;13.15;;;14.70;99.90;;;;;;5032975;28;20075;-76
2022/10/18 00:09:58;;;;;;;14.98;13.43;;;14.70;99.90;;;;;;5059070;22;20450;-71
2022/10/18 00:12:24;;;;;;;23.38;13.48;;;14.70;99.90;;;;;;4982152;28;20069;-71
2022/10/18 00:14:51;;;;;;;13.98;12.57;;;14.70;99.90;;;;;;4980224;28;20064;-71
2022/10/18 00:17:18;;;;;;;14.23;12.25;;;14.70;99.90;;;;;;5001279;28;20117;-69
2022/10/18 00:19:45;;;;;;;22.05;14.75;;;14.70;99.90;;;;;;4999659;28;20052;-70
2022/10/18 00:22:12;;;;;;;48.83;22.25;;;14.70;99.90;;;;;;4980607;28;20068;-71
2022/10/18 00:24:38;;;;;;;47.63;24.05;;;14.70;99.90;;;;;;5009251;28;20540;-70
2022/10/18 00:27:05;;;;;;;34.22;19.70;;;14.70;99.90;;;;;;5002343;28;20045;-71
2022/10/18 00:29:32;;;;;;;22.13;16.23;;;14.70;99.90;;;;;;4995650;28;20037;-69
2022/10/18 00:31:59;;;;;;;28.77;16.65;;;14.70;99.90;;;;;;4983132;28;20346;-70
2022/10/18 00:34:25;;;;;;;20.83;14.70;;;14.80;99.90;;;;;;5004880;28;20412;-71
2022/10/18 00:36:53;;;;;;;26.48;16.65;;;14.80;99.90;;;;;;5011944;28;20504;-70
2022/10/18 00:39:21;;;;;;;21.83;16.63;;;14.90;99.90;;;;;;4981756;28;20418;-69
2022/10/18 00:41:48;;;;;;;22.67;16.17;;;14.90;99.90;;;;;;4982609;28;20073;-70
2022/10/18 00:44:15;;;;;;;26.45;18.17;;;14.90;99.90;;;;;;4985632;28;20057;-71
2022/10/18 00:46:44;;;;;;;27.13;18.10;;;14.80;99.90;;;;;;4978056;28;20146;-70
2022/10/18 00:49:23;;;;;;;28.60;17.95;;;14.80;99.90;;;;;;4981926;28;20225;-70
2022/10/18 00:52:08;;;;;;;23.27;17.48;;;14.80;99.90;;;;;;4969628;28;20064;-70
2022/10/18 00:54:38;;;;;;;29.30;18.25;;;14.80;99.90;;;;;;4978622;28;20048;-70
2022/10/18 00:57:05;;;;;;;28.63;19.23;;;14.60;99.90;;;;;;5002763;28;20069;-69
2022/10/18 00:59:33;;;;;;;24.85;18.42;;;14.60;99.90;;;;;;4998060;28;20036;-69
2022/10/18 01:02:00;;;;;;;27.60;18.17;;;14.60;99.90;;;;;;5007470;28;20055;-70
2022/10/18 01:04:27;;;;;;;29.48;20.33;;;14.50;99.90;;;;;;4985749;28;20145;-69
2022/10/18 01:07:00;;;;;;;25.90;18.92;;;14.60;99.90;;;;;;5005589;28;20041;-69
2022/10/18 01:09:38;;;;;;;32.35;21.35;;;14.70;99.90;;;;;;5005920;28;20136;-69
2022/10/18 01:12:23;;;;;;;32.95;22.13;;;14.80;99.90;;;;;;5007972;28;20052;-70
2022/10/18 01:15:17;;;;;;;31.17;22.75;;;14.80;99.90;;;;;;5001461;28;20429;-70
2022/10/18 01:18:21;;;;;;;36.78;21.60;;;14.70;99.90;;;;;;4978580;28;20060;-68
2022/10/18 01:21:08;;;;;;;36.72;23.98;;;14.60;99.90;;;;;;5000277;28;20041;-70
2022/10/18 01:24:09;;;;;;;46.83;26.67;;;14.60;99.90;;;;;;5006545;28;20834;-69
2022/10/18 01:26:47;;;;;;;39.08;23.95;;;14.70;99.90;;;;;;4995195;28;20057;-70
2022/10/18 01:29:36;;;;;;;40.83;25.17;;;14.60;99.90;;;;;;4985770;28;20126;-69
2022/10/18 01:32:15;;;;;;;35.60;23.30;;;14.60;99.90;;;;;;5003396;28;20045;-70
2022/10/18 01:34:44;;;;;;;45.53;24.95;;;14.60;99.90;;;;;;4976223;28;20324;-69
2022/10/18 01:37:16;;;;;;;38.67;23.45;;;14.70;99.90;;;;;;5016623;28;20032;-71
2022/10/18 01:39:46;;;;;;;42.15;25.38;;;14.60;99.90;;;;;;4988904;28;20092;-70
2022/10/18 01:42:17;;;;;;;43.58;24.02;;;14.60;99.90;;;;;;4982161;28;20041;-70
2022/10/18 01:44:45;;;;;;;43.28;24.98;;;14.60;99.90;;;;;;4979519;28;20460;-72
2022/10/18 01:47:14;;;;;;;51.85;26.45;;;14.60;99.90;;;;;;5005536;28;20044;-70
2022/10/18 01:49:41;;;;;;;53.72;28.63;;;14.60;99.90;;;;;;4983872;28;20052;-71
2022/10/18 01:52:15;;;;;;;52.35;28.13;;;14.60;99.90;;;;;;4983830;28;20576;-71
2022/10/18 01:54:50;;;;;;;41.57;23.77;;;14.60;99.90;;;;;;4975160;28;20053;-73
2022/10/18 01:57:38;;;;;;;44.08;22.27;;;14.50;99.90;;;;;;4997578;28;20505;-71
2022/10/18 02:00:10;;;;;;;42.75;22.55;;;14.40;99.90;;;;;;5001505;28;20047;-70
2022/10/18 02:02:59;;;;;;;44.95;22.90;;;14.40;99.90;;;;;;4982547;28;20041;-70
2022/10/18 02:05:31;;;;;;;;;;;14.30;99.90;;;;;;4987951;28;20156;-71
2022/10/18 02:08:16;;;;;;;34.80;19.45;;;14.40;99.90;;;;;;4990799;28;19928;-70
2022/10/18 02:11:11;;;;;;;35.33;18.90;;;14.30;99.90;;;;;;4991542;28;20198;-71
2022/10/18 02:13:42;;;;;;;36.80;20.08;;;14.30;99.90;;;;;;4971828;28;20111;-70
2022/10/18 02:16:20;;;;;;;47.38;19.88;;;14.30;99.90;;;;;;4981968;28;20166;-71
2022/10/18 02:18:57;;;;;;;39.50;19.17;;;14.30;99.90;;;;;;5003804;28;20706;-72
2022/10/18 02:21:26;;;;;;;37.33;19.73;;;14.30;99.90;;;;;;4984316;28;20389;-72
2022/10/18 02:23:55;;;;;;;37.10;17.58;;;14.30;99.90;;;;;;4983854;28;20047;-72
2022/10/18 02:26:22;;;;;;;40.65;18.85;;;14.40;99.90;;;;;;4976288;28;20406;-71
2022/10/18 02:28:48;;;;;;;40.35;19.60;;;14.30;99.90;;;;;;5010034;28;20576;-71
2022/10/18 02:31:36;;;;;;;44.50;19.42;;;14.30;99.90;;;;;;4999851;28;20045;-71
2022/10/18 02:34:11;;;;;;;44.90;20.23;;;14.50;99.90;;;;;;5043816;23;20408;-72
2022/10/18 02:36:45;;;;;;;43.63;19.85;;;14.40;99.90;;;;;;5011464;28;20087;-72
2022/10/18 02:39:16;;;;;;;38.40;19.73;;;14.50;99.90;;;;;;5015315;28;20041;-72
2022/10/18 02:41:43;;;;;;;44.33;20.30;;;14.50;99.90;;;;;;5018140;28;20051;-72
2022/10/18 02:44:10;;;;;;;47.60;21.20;;;14.60;99.90;;;;;;5016373;28;20391;-72
2022/10/18 02:46:38;;;;;;;45.42;20.73;;;14.60;99.90;;;;;;5031999;28;20047;-73
2022/10/18 02:49:05;;;;;;;44.05;21.35;;;14.60;99.90;;;;;;5035052;28;20041;-72
2022/10/18 02:51:32;;;;;;;47.72;22.77;;;14.50;99.90;;;;;;5031354;28;20393;-72
2022/10/18 02:53:59;;;;;;;53.00;21.20;;;14.40;99.90;;;;;;5033139;28;20117;-72
2022/10/18 02:56:26;;;;;;;45.20;21.52;;;14.30;99.90;;;;;;5031403;28;20033;-72
2022/10/18 02:58:52;;;;;;;53.13;23.23;;;14.20;99.90;;;;;;5035803;28;20355;-73
2022/10/18 03:01:19;;;;;;;60.65;23.92;;;14.20;99.90;;;;;;5034074;28;20229;-73
2022/10/18 03:03:47;;;;;;;49.20;21.65;;;14.20;99.90;;;;;;5036565;28;20048;-74
2022/10/18 03:06:14;;;;;;;53.88;22.90;;;14.20;99.90;;;;;;5030782;28;20510;-74
2022/10/18 03:08:40;;;;;;;54.42;22.98;;;14.30;99.90;;;;;;5036708;28;20452;-74
2022/10/18 03:11:07;;;;;;;54.15;23.45;;;14.20;99.90;;;;;;5034906;28;20406;-74
2022/10/18 03:13:34;;;;;;;48.92;22.23;;;14.30;99.90;;;;;;5029567;28;20068;-73
2022/10/18 03:16:01;;;;;;;57.40;23.75;;;14.30;99.90;;;;;;5028002;28;20045;-74
2022/10/18 03:18:28;;;;;;;56.53;23.25;;;14.30;99.90;;;;;;5030572;28;20068;-74
2022/10/18 03:20:54;;;;;;;58.47;23.33;;;14.30;99.90;;;;;;5032696;28;20037;-73
2022/10/18 03:23:21;;;;;;;54.03;23.10;;;14.50;99.90;;;;;;5029628;28;20246;-74
2022/10/18 03:25:48;;;;;;;58.05;23.42;;;14.50;99.90;;;;;;5034052;28;20294;-73
2022/10/18 03:28:14;;;;;;;47.88;22.77;;;14.50;99.90;;;;;;5031149;28;20540;-74
2022/10/18 03:30:41;;;;;;;52.72;23.92;;;14.50;99.90;;;;;;5031270;28;20203;-73
2022/10/18 03:33:08;;;;;;;49.75;22.73;;;14.50;99.90;;;;;;5031884;28;20052;-74
2022/10/18 03:35:34;;;;;;;45.72;23.05;;;14.60;99.90;;;;;;5029325;28;20124;-74
2022/10/18 03:38:01;;;;;;;58.25;24.67;;;14.60;99.90;;;;;;5031949;28;20033;-74
2022/10/18 03:40:28;;;;;;;63.22;24.80;;;14.60;99.90;;;;;;5032163;28;20045;-74
2022/10/18 03:42:58;;;;;;;55.13;24.75;;;14.50;99.90;;;;;;5036480;28;20148;-74
2022/10/18 03:45:24;;;;;;;52.08;23.85;;;14.40;99.90;;;;;;5036155;28;20048;-74
2022/10/18 03:47:56;;;;;;;49.45;23.05;;;14.30;99.90;;;;;;5040421;28;20583;-74
2022/10/18 03:50:23;;;;;;;48.03;23.27;;;14.50;99.90;;;;;;5039672;28;20080;-74
2022/10/18 03:52:50;;;;;;;52.67;24.00;;;14.40;99.90;;;;;;5040594;28;20329;-75
2022/10/18 03:55:16;;;;;;;57.00;22.60;;;14.40;99.90;;;;;;5039223;28;20049;-75
2022/10/18 03:57:43;;;;;;;57.65;23.55;;;14.40;99.90;;;;;;5058742;28;20045;-74
2022/10/18 04:00:11;;;;;;;61.78;27.10;;;14.40;99.90;;;;;;5042858;28;20519;-73
2022/10/18 04:02:38;;;;;;;56.00;25.42;;;14.40;99.90;;;;;;5037586;28;20580;-75
2022/10/18 04:05:06;;;;;;;54.67;26.33;;;14.30;99.90;;;;;;5040181;28;20033;-74
2022/10/18 04:07:33;;;;;;;53.83;23.20;;;14.30;99.90;;;;;;5038115;28;20049;-74
2022/10/18 04:10:05;;;;;;;67.65;24.80;;;14.20;99.90;;;;;;5035214;28;20045;-74
2022/10/18 04:12:32;;;;;;;62.70;26.23;;;14.40;99.90;;;;;;5034508;28;20047;-75
2022/10/18 04:14:59;;;;;;;48.08;23.95;;;14.40;99.90;;;;;;5037977;28;20064;-75
2022/10/18 04:17:26;;;;;;;57.67;24.23;;;14.50;99.90;;;;;;5037017;28;20079;-75
2022/10/18 04:19:53;;;;;;;55.95;23.60;;;14.40;99.90;;;;;;5039211;28;20126;-75
2022/10/18 04:22:20;;;;;;;52.10;24.30;;;14.40;99.90;;;;;;5036845;28;20128;-75
2022/10/18 04:24:46;;;;;;;53.45;22.48;;;14.30;99.90;;;;;;5039222;28;20056;-75
2022/10/18 04:27:13;;;;;;;46.85;21.55;;;14.30;99.90;;;;;;5034659;28;20048;-75
2022/10/18 04:29:40;;;;;;;47.53;20.92;;;14.20;99.90;;;;;;5035274;28;20049;-75
2022/10/18 04:32:07;;;;;;;53.90;20.98;;;14.20;99.90;;;;;;5020403;28;20044;-75
2022/10/18 04:34:33;;;;;;;53.08;21.35;;;14.20;99.90;;;;;;5037042;28;20082;-76
2022/10/18 04:37:00;;;;;;;48.22;20.30;;;14.10;99.90;;;;;;5039026;28;20123;-76
2022/10/18 04:39:27;;;;;;;47.28;20.58;;;14.00;99.90;;;;;;5036382;28;20467;-76
2022/10/18 04:41:54;;;;;;;54.13;20.83;;;14.00;99.90;;;;;;5021314;28;20049;-75
2022/10/18 04:44:20;;;;;;;61.72;22.38;;;14.00;99.90;;;;;;5035778;28;20041;-75
2022/10/18 04:46:47;;;;;;;46.60;20.73;;;14.00;99.90;;;;;;5038648;28;20203;-75
2022/10/18 04:49:14;;;;;;;48.83;21.70;;;14.00;99.90;;;;;;5039878;28;20137;-75
2022/10/18 04:51:41;;;;;;;53.45;22.00;;;14.00;99.90;;;;;;5036008;28;20057;-75
2022/10/18 04:54:07;;;;;;;60.33;22.75;;;14.00;99.90;;;;;;5034714;28;20045;-75
2022/10/18 04:56:34;;;;;;;52.92;25.38;;;14.10;99.90;;;;;;5034208;28;20521;-75
2022/10/18 04:59:01;;;;;;;60.88;24.80;;;14.10;99.90;;;;;;5037012;28;20041;-75
2022/10/18 05:01:28;;;;;;;52.63;20.88;;;14.00;99.90;;;;;;5035254;28;20043;-75
2022/10/18 05:03:55;;;;;;;51.00;21.95;;;14.00;99.90;;;;;;5040189;28;20184;-74
2022/10/18 05:06:24;;;;;;;58.25;22.25;;;14.00;99.90;;;;;;5032391;28;20036;-75
2022/10/18 05:08:50;;;;;;;53.65;21.73;;;14.00;99.90;;;;;;5016044;28;20132;-74
2022/10/18 05:11:17;;;;;;;46.75;22.58;;;14.00;99.90;;;;;;5032483;28;20057;-76
2022/10/18 05:13:44;;;;;;;49.50;21.45;;;14.00;99.90;;;;;;5031199;28;20132;-75
2022/10/18 05:16:15;;;;;;;57.95;23.75;;;14.00;99.90;;;;;;5017829;28;20080;-75
2022/10/18 05:18:42;;;;;;;48.38;22.33;;;14.10;99.90;;;;;;5033993;28;20063;-75
2022/10/18 05:21:09;;;;;;;47.58;22.15;;;14.10;99.90;;;;;;5034413;28;20033;-75
2022/10/18 05:23:35;;;;;;;51.60;22.60;;;14.20;99.90;;;;;;5049495;28;20052;-75
2022/10/18 05:26:04;;;;;;;57.92;22.77;;;14.10;99.90;;;;;;5038173;28;20036;-75
2022/10/18 05:28:32;;;;;;;57.53;22.58;;;14.00;99.90;;;;;;5034787;28;20048;-75
2022/10/18 05:31:08;;;;;;;58.63;23.48;;;14.00;99.90;;;;;;5035840;28;20047;-74
2022/10/18 05:33:35;;;;;;;50.97;22.10;;;14.00;99.90;;;;;;5030121;28;20038;-74
2022/10/18 05:36:01;;;;;;;48.22;23.35;;;14.00;99.90;;;;;;5035637;28;20494;-75
2022/10/18 05:38:31;;;;;;;48.22;21.13;;;14.10;99.90;;;;;;5032456;28;20041;-74
2022/10/18 05:40:58;;;;;;;53.03;23.02;;;14.10;99.90;;;;;;5034158;28;20037;-75
2022/10/18 05:43:28;;;;;;;53.35;23.30;;;14.10;99.90;;;;;;5016159;28;20045;-74
2022/10/18 05:45:55;;;;;;;52.08;23.10;;;14.00;99.90;;;;;;5033272;28;20049;-73
2022/10/18 05:48:21;;;;;;;48.45;21.80;;;14.10;99.90;;;;;;5031536;28;20041;-74
2022/10/18 05:50:48;;;;;;;65.70;23.85;;;14.10;99.90;;;;;;5035081;28;20051;-74
2022/10/18 05:53:15;;;;;;;50.75;21.58;;;14.10;99.90;;;;;;5033292;28;20041;-75
2022/10/18 05:56:03;;;;;;;53.28;22.80;;;14.20;99.90;;;;;;5033651;28;20324;-75
2022/10/18 05:58:29;;;;;;;63.65;21.88;;;14.20;99.90;;;;;;5032248;28;20231;-74
2022/10/18 06:01:01;;;;;;;43.35;20.65;;;14.20;99.90;;;;;;5034853;28;20760;-74
2022/10/18 06:03:29;;;;;;;58.90;23.02;;;14.20;99.90;;;;;;5031820;28;20564;-74
2022/10/18 06:06:08;;;;;;;58.63;24.02;;;14.20;99.90;;;;;;5015401;28;20128;-75
2022/10/18 06:08:36;;;;;;;73.45;23.63;;;14.30;99.90;;;;;;5034269;28;20144;-74
2022/10/18 06:11:11;;;;;;;62.75;22.92;;;14.20;99.90;;;;;;5032839;28;20047;-74
2022/10/18 06:13:43;;;;;;;74.93;25.98;;;14.10;99.90;;;;;;5033016;28;20471;-75
2022/10/18 06:16:11;;;;;;;61.35;23.83;;;14.10;99.90;;;;;;5036278;28;20094;-75
2022/10/18 06:18:38;;;;;;;67.03;25.63;;;14.20;99.90;;;;;;5037643;28;20514;-75
2022/10/18 06:21:06;;;;;;;63.25;23.88;;;14.20;99.90;;;;;;5031421;28;20043;-74
2022/10/18 06:23:33;;;;;;;66.32;24.00;;;14.20;99.90;;;;;;5034805;28;20029;-75
2022/10/18 06:26:02;;;;;;;49.78;21.23;;;14.10;99.90;;;;;;5042046;28;20399;-75
2022/10/18 06:28:29;;;;;;;58.22;23.67;;;14.10;99.90;;;;;;5031915;28;20519;-75
2022/10/18 06:30:56;;;;;;;62.58;23.80;;;14.20;99.90;;;;;;5036515;28;20041;-74
2022/10/18 06:33:23;;;;;;;55.42;22.67;;;14.20;99.90;;;;;;5038873;28;20116;-75
2022/10/18 06:36:02;;;;;;;51.97;23.02;;;14.20;99.90;;;;;;5059850;28;20024;-75
2022/10/18 06:38:29;;;;;;;47.13;22.20;;;14.20;99.90;;;;;;5055575;28;20107;-75
2022/10/18 06:40:56;;;;;;;56.08;23.05;;;14.10;99.90;;;;;;5058536;28;20045;-75
2022/10/18 06:43:23;;;;;;;77.30;24.88;;;14.10;99.90;;;;;;5056796;28;20059;-75
2022/10/18 06:45:51;;;;;;;68.55;25.75;;;14.20;99.90;;;;;;5039155;28;20037;-75
2022/10/18 06:48:18;;;;;;;73.90;25.38;;;14.20;99.90;;;;;;5014779;28;20033;-74
2022/10/18 06:51:00;;;;;;;76.32;26.15;;;14.20;99.90;;;;;;5033629;28;20106;-74
2022/10/18 06:53:30;;;;;;;63.92;23.88;;;14.20;99.90;;;;;;5031850;28;20143;-74
2022/10/18 06:56:03;;;;;;;58.53;23.33;;;14.20;99.90;;;;;;5033525;28;20119;-74
2022/10/18 06:58:30;;;;;;;62.25;22.83;;;14.20;99.90;;;;;;5037913;28;20044;-74
2022/10/18 07:00:56;;;;;;;67.05;24.17;;;14.10;99.90;;;;;;5039685;28;20152;-75
2022/10/18 07:03:23;;;;;;;65.40;24.98;;;14.20;99.90;;;;;;5034234;28;20045;-74
2022/10/18 07:05:50;;;;;;;74.35;24.55;;;14.20;99.90;;;;;;5036166;28;20486;-74
2022/10/18 07:08:17;;;;;;;61.85;24.33;;;14.20;99.90;;;;;;5035650;28;20425;-73
2022/10/18 07:10:54;;;;;;;56.85;23.88;;;14.30;99.90;;;;;;5032753;28;20072;-73
2022/10/18 07:13:21;;;;;;;51.38;22.98;;;14.30;99.90;;;;;;5029569;28;20071;-73
2022/10/18 07:16:05;;;;;;;58.97;24.80;;;14.30;99.90;;;;;;5031417;28;20044;-73
2022/10/18 07:18:33;;;;;;;65.43;23.27;;;14.40;99.90;;;;;;5030997;28;20108;-73
2022/10/18 07:21:02;;;;;;;54.10;23.35;;;14.40;99.90;;;;;;5033432;28;20029;-75
2022/10/18 07:23:30;;;;;;;52.95;23.58;;;14.20;99.90;;;;;;5033001;28;20045;-75
2022/10/18 07:25:57;;;;;;;56.92;24.10;;;14.20;99.90;;;;;;5034761;28;20045;-74
2022/10/18 07:28:24;;;;;;;69.82;25.58;;;14.10;99.90;;;;;;5032756;28;20052;-74
2022/10/18 07:30:51;;;;;;;75.57;26.95;;;14.20;99.90;;;;;;5034984;28;20037;-74
2022/10/18 07:33:19;;;;;;;64.18;24.98;;;14.20;99.90;;;;;;5033934;28;20044;-74
2022/10/18 07:35:46;;;;;;;63.92;25.38;;;14.30;99.90;;;;;;5029393;28;20060;-74
2022/10/18 07:38:13;;;;;;;63.15;26.63;;;14.30;99.90;;;;;;5036557;28;20041;-74
2022/10/18 07:40:40;;;;;;;58.88;25.80;;;14.40;99.90;;;;;;5032470;28;20049;-74
2022/10/18 07:43:06;;;;;;;54.83;23.70;;;14.60;99.90;;;;;;5036645;28;20041;-75
2022/10/18 07:45:37;;;;;;;58.05;24.95;;;14.60;99.90;;;;;;5031395;28;20094;-74
2022/10/18 07:48:04;;;;;;;48.95;22.13;;;14.70;99.90;;;;;;5032377;28;20071;-73
2022/10/18 07:50:31;;;;;;;53.42;23.75;;;14.70;99.90;;;;;;5030940;28;20048;-73
2022/10/18 07:52:57;;;;;;;41.63;21.05;;;14.90;99.90;;;;;;5038212;28;20090;-74
2022/10/18 07:55:24;;;;;;;38.78;20.05;;;15.00;99.90;;;;;;5033167;28;20411;-73
2022/10/18 07:57:51;;;;;;;46.05;21.10;;;15.10;99.90;;;;;;5036408;28;20041;-73
2022/10/18 08:00:17;;;;;;;44.47;21.90;;;15.10;99.90;;;;;;5034236;28;20175;-73
2022/10/18 08:02:44;;;;;;;48.90;22.92;;;15.20;99.90;;;;;;5033217;28;20522;-73
2022/10/18 08:05:11;;;;;;;46.17;23.00;;;15.20;99.90;;;;;;5035828;28;20511;-72
2022/10/18 08:07:37;;;;;;;42.53;23.10;;;15.20;99.90;;;;;;5054451;28;20056;-73
2022/10/18 08:10:04;;;;;;;44.88;24.65;;;15.20;99.90;;;;;;5035789;28;20147;-74
2022/10/18 08:12:31;;;;;;;49.45;29.00;;;15.20;99.90;;;;;;5034330;28;20159;-74
2022/10/18 08:14:58;;;;;;;48.65;28.42;;;15.20;99.90;;;;;;5034488;28;20033;-73
2022/10/18 08:17:25;;;;;;;44.28;26.90;;;15.20;99.90;;;;;;5031289;28;20498;-73
2022/10/18 08:19:51;;;;;;;49.17;27.25;;;15.20;99.90;;;;;;5032383;28;20049;-73
2022/10/18 08:22:38;;;;;;;43.47;23.65;;;15.20;99.90;;;;;;5030872;28;20041;-73
2022/10/18 08:25:05;;;;;;;38.22;23.67;;;15.20;99.90;;;;;;5034336;28;20395;-73
2022/10/18 08:27:31;;;;;;;42.47;23.13;;;15.30;99.90;;;;;;5031754;28;20049;-73
2022/10/18 08:30:00;;;;;;;45.08;25.35;;;15.30;99.90;;;;;;5041570;28;20040;-73
2022/10/18 08:32:31;;;;;;;50.35;27.27;;;15.30;99.90;;;;;;5035672;28;20076;-73
2022/10/18 08:34:58;;;;;;;49.72;27.23;;;15.30;99.90;;;;;;5025880;28;20132;-77
2022/10/18 08:37:24;;;;;;;45.92;26.35;;;15.30;99.90;;;;;;5001576;28;20026;-78
2022/10/18 08:39:51;;;;;;;47.55;28.83;;;15.30;99.90;;;;;;5011731;28;20133;-78
2022/10/18 08:42:51;;;;;;;48.05;26.27;;;15.20;99.90;;;;;;5007988;28;20065;-78
2022/10/18 08:45:18;;;;;;;46.20;24.50;;;15.20;99.90;;;;;;4998552;28;20049;-79
2022/10/18 08:48:07;;;;;;;47.20;26.33;;;15.20;99.90;;;;;;5005739;28;20064;-77
2022/10/18 08:50:36;;;;;;;54.83;27.67;;;15.30;99.90;;;;;;5013977;28;20057;-79
2022/10/18 08:53:22;;;;;;;55.10;28.23;;;15.40;99.90;;;;;;5017079;28;20614;-79
2022/10/18 08:55:51;;;;;;;;;;;15.30;99.90;;;;;;5004528;28;20067;-78
2022/10/18 08:58:23;;;;;;;58.00;27.67;;;15.40;99.90;;;;;;5027543;28;20197;-79
2022/10/18 09:00:56;;;;;;;59.80;30.92;;;15.40;99.90;;;;;;5027343;28;20144;-80
2022/10/18 09:04:00;;;;;;;64.78;29.83;;;15.40;99.90;;;;;;5017765;28;20077;-78
2022/10/18 09:06:42;;;;;;;66.95;30.67;;;15.40;99.90;;;;;;5002430;28;20042;-78
2022/10/18 09:09:37;;;;;;;61.15;31.15;;;15.40;99.90;;;;;;5010071;28;20524;-79
2022/10/18 09:12:25;;;;;;;64.63;29.97;;;15.40;99.90;;;;;;5013995;28;20591;-77
2022/10/18 09:15:10;;;;;;;69.20;36.25;;;15.30;99.90;;;;;;4994793;28;20048;-79
2022/10/18 09:17:54;;;;;;;76.20;39.22;;;15.40;99.90;;;;;;5020321;28;20045;-78
2022/10/18 09:20:24;;;;;;;58.53;32.08;;;15.50;99.90;;;;;;5007419;28;20213;-81
2022/10/18 09:22:54;;;;;;;59.80;31.83;;;15.50;99.90;;;;;;4995218;28;20583;-79
2022/10/18 09:25:33;;;;;;;47.92;27.08;;;15.60;99.90;;;;;;5003988;28;20103;-78
2022/10/18 09:28:16;;;;;;;52.75;27.13;;;15.80;99.90;;;;;;5019556;28;20505;-81
2022/10/18 09:30:47;;;;;;;44.33;28.77;;;15.80;99.90;;;;;;5014593;28;20049;-79
2022/10/18 09:33:33;;;;;;;52.50;30.58;;;15.80;99.90;;;;;;4987468;28;20045;-77
2022/10/18 09:36:03;;;;;;;47.05;28.13;;;16.00;99.90;;;;;;5019088;28;20734;-77
2022/10/18 09:38:53;;;;;;;44.95;27.65;;;16.00;99.90;;;;;;5010291;28;20053;-79
2022/10/18 09:41:31;;;;;;;41.80;27.67;;;15.90;99.90;;;;;;5007906;28;20056;-80
2022/10/18 09:44:05;;;;;;;47.40;29.50;;;15.80;99.90;;;;;;5007266;28;20133;-78
2022/10/18 09:46:37;;;;;;;49.27;31.07;;;15.90;99.90;;;;;;5016902;28;20041;-78
2022/10/18 09:49:12;;;;;;;56.95;32.97;;;15.90;99.90;;;;;;4988640;28;20046;-77
2022/10/18 09:51:43;;;;;;;48.40;30.25;;;16.00;99.90;;;;;;5000435;28;20076;-80
2022/10/18 09:54:16;;;;;;;59.25;30.98;;;15.90;99.90;;;;;;5013399;28;20049;-80
2022/10/18 09:56:54;;;;;;;51.90;27.70;;;15.90;99.90;;;;;;5024595;28;20045;-80
2022/10/18 09:59:35;;;;;;;61.00;31.58;;;15.80;99.90;;;;;;5012698;28;20064;-77
2022/10/18 10:02:02;;;;;;;60.25;31.80;;;15.70;99.90;;;;;;5029832;28;20686;-79
2022/10/18 10:04:29;;;;;;;62.38;34.33;;;15.70;99.90;;;;;;4993342;28;20051;-77
2022/10/18 10:06:59;;;;;;;64.90;33.95;;;15.70;99.90;;;;;;5012882;28;20708;-78
2022/10/18 10:09:53;;;;;;;63.08;31.88;;;15.70;99.90;;;;;;5011614;28;20222;-79
2022/10/18 10:12:29;;;;;;;65.25;31.65;;;15.70;99.90;;;;;;4994145;28;20041;-80
2022/10/18 10:15:24;;;;;;;65.90;32.63;;;15.70;99.90;;;;;;5009452;28;20523;-78
2022/10/18 10:18:04;;;;;;;61.38;31.25;;;15.90;99.90;;;;;;5001605;28;20033;-79
2022/10/18 10:20:52;;;;;;;68.93;35.92;;;15.90;99.90;;;;;;5008836;28;20049;-77
2022/10/18 10:23:45;;;;;;;64.38;33.38;;;16.00;99.90;;;;;;5003255;28;20117;-77
2022/10/18 10:26:24;;;;;;;77.05;38.20;;;16.00;99.90;;;;;;5012737;28;20043;-77
2022/10/18 10:28:51;;;;;;;70.45;36.22;;;15.90;99.90;;;;;;5016328;28;20123;-77
2022/10/18 10:31:24;;;;;;;65.80;36.20;;;15.90;99.90;;;;;;5010661;28;20041;-77
2022/10/18 10:33:58;;;;;;;75.18;38.92;;;16.00;99.90;;;;;;5026372;28;20049;-79
2022/10/18 10:36:25;;;;;;;74.63;39.38;;;15.90;99.90;;;;;;4992561;28;20103;-78
2022/10/18 10:39:06;;;;;;;73.35;38.47;;;16.10;99.90;;;;;;5002956;28;20064;-77
2022/10/18 10:41:33;;;;;;;73.18;41.03;;;16.10;99.90;;;;;;5024415;28;20045;-77
2022/10/18 10:44:03;;;;;;;82.25;41.72;;;16.00;99.90;;;;;;5007728;28;20371;-78
2022/10/18 10:46:35;;;;;;;71.85;39.67;;;16.10;99.90;;;;;;4989444;28;20057;-77
2022/10/18 10:49:03;;;;;;;76.80;40.15;;;16.10;99.90;;;;;;5015670;28;20678;-77
2022/10/18 10:51:59;;;;;;;78.55;41.97;;;16.10;99.90;;;;;;4984578;28;20073;-77
2022/10/18 10:54:37;;;;;;;78.72;41.33;;;16.00;99.90;;;;;;5003846;28;20494;-78
2022/10/18 10:57:18;;;;;;;81.65;45.70;;;15.90;99.90;;;;;;4987176;28;20047;-77
2022/10/18 10:59:48;;;;;;;88.53;46.08;;;15.80;99.90;;;;;;5020831;28;20553;-77
2022/10/18 11:02:17;;;;;;;81.20;42.05;;;15.90;99.90;;;;;;5004446;28;20140;-78
2022/10/18 11:04:47;;;;;;;76.55;41.15;;;15.90;99.90;;;;;;5007539;28;20044;-78
2022/10/18 11:07:32;;;;;;;76.95;42.45;;;16.00;99.90;;;;;;5009454;28;20047;-77
2022/10/18 11:10:10;;;;;;;82.95;43.45;;;16.00;99.90;;;;;;5004737;28;20064;-79
2022/10/18 11:13:02;;;;;;;82.07;42.35;;;16.10;99.90;;;;;;4993288;28;20049;-77
2022/10/18 11:15:35;;;;;;;67.00;39.22;;;16.10;99.90;;;;;;5017810;28;20538;-77
2022/10/18 11:18:21;;;;;;;76.90;41.15;;;16.10;99.90;;;;;;5019449;28;20073;-78
2022/10/18 11:21:10;;;;;;;77.40;44.65;;;16.10;99.90;;;;;;5002522;28;20105;-78
2022/10/18 11:23:39;;;;;;;76.65;43.58;;;16.00;99.90;;;;;;5027952;28;20848;-77
2022/10/18 11:26:11;;;;;;;77.40;43.42;;;16.10;99.90;;;;;;5025948;28;20053;-78
2022/10/18 11:28:51;;;;;;;85.28;45.38;;;16.20;99.90;;;;;;5007049;28;20054;-78
2022/10/18 11:31:34;;;;;;;78.60;41.75;;;16.20;99.90;;;;;;5001227;28;20037;-78
2022/10/18 11:34:31;;;;;;;72.68;43.90;;;16.30;99.90;;;;;;5005160;28;20055;-77
2022/10/18 11:37:18;;;;;;;72.97;41.40;;;16.50;99.90;;;;;;5004572;28;20128;-77
2022/10/18 11:40:16;;;;;;;56.67;37.15;;;16.70;99.90;;;;;;5009981;28;20045;-78
2022/10/18 11:42:51;;;;;;;60.85;39.17;;;16.60;99.90;;;;;;4993238;28;20049;-78
2022/10/18 11:45:43;;;;;;;58.63;40.55;;;16.70;99.90;;;;;;5012829;28;20557;-78
2022/10/18 11:48:27;;;;;;;58.20;39.05;;;16.80;99.90;;;;;;5011975;28;20481;-78
2022/10/18 11:51:19;;;;;;;61.70;42.85;;;16.90;99.90;;;;;;4991545;28;20038;-78
2022/10/18 11:54:23;;;;;;;59.65;42.35;;;17.00;99.90;;;;;;5005869;28;20417;-77
2022/10/18 11:57:06;;;;;;;67.82;42.35;;;17.00;99.90;;;;;;5007263;28;20076;-77
2022/10/18 11:59:55;;;;;;;59.50;40.72;;;16.90;99.90;;;;;;5016616;28;20148;-79
2022/10/18 12:02:48;;;;;;;61.05;41.30;;;16.90;99.90;;;;;;4989100;28;20117;-77
2022/10/18 12:05:19;;;;;;;58.63;42.10;;;16.80;99.90;;;;;;5015902;28;20106;-76
2022/10/18 12:08:06;;;;;;;60.92;40.95;;;16.70;99.90;;;;;;5015365;28;20048;-80
2022/10/18 12:10:35;;;;;;;65.05;42.25;;;16.70;99.90;;;;;;5007048;22;22025;-73
2022/10/18 12:13:32;;;;;;;60.85;41.75;;;16.70;99.90;;;;;;4974466;28;20056;-73
2022/10/18 12:16:03;;;;;;;55.03;39.20;;;16.70;99.90;;;;;;4981633;28;20149;-73
2022/10/18 12:18:31;;;;;;;57.63;40.05;;;16.80;99.90;;;;;;4980784;28;20044;-72
2022/10/18 12:20:59;;;;;;;53.40;37.00;;;17.00;99.90;;;;;;4979483;28;20148;-72
2022/10/18 12:23:44;;;;;;;56.90;39.63;;;17.30;99.90;;;;;;4976152;28;20306;-72
2022/10/18 12:26:11;;;;;;;54.93;40.87;;;17.40;99.90;;;;;;4976927;28;20038;-73
2022/10/18 12:28:57;;;;;;;53.63;40.05;;;17.30;99.90;;;;;;4968261;28;20297;-74
2022/10/18 12:31:32;;;;;;;55.53;39.95;;;17.20;99.90;;;;;;4964168;28;20513;-74
2022/10/18 12:34:01;;;;;;;;;;;17.20;99.90;;;;;;4974603;28;20047;-74
2022/10/18 12:36:53;;;;;;;54.63;38.63;;;17.40;99.90;;;;;;4977575;28;19921;-74
2022/10/18 12:39:27;;;;;;;55.35;39.53;;;17.60;99.90;;;;;;4975014;28;20046;-74
2022/10/18 12:42:31;;;;;;;56.00;42.95;;;17.60;99.90;;;;;;4975247;28;20650;-75
2022/10/18 12:45:16;;;;;;;58.45;42.38;;;17.30;99.90;;;;;;4974124;28;20144;-75
2022/10/18 12:47:43;;;;;;;56.08;42.28;;;17.00;99.90;;;;;;4979416;28;20561;-75
2022/10/18 12:50:36;;;;;;;63.13;41.50;;;16.80;99.90;;;;;;4976318;28;20469;-75
2022/10/18 12:53:17;;;;;;;62.35;41.67;;;16.60;99.90;;;;;;4964958;28;20042;-75
2022/10/18 12:55:47;;;;;;;62.80;43.70;;;16.80;99.90;;;;;;4966438;28;20065;-75